Time;durP1;ratioP1;P1;durP2;ratioP2;P2;SDS_P1;SDS_P2;PMS_P1;PMS_P2;Temp;Humidity;BMP_temperature;BMP_pressure;BME280_temperature;BME280_humidity;BME280_pressure;Samples;Min_cycle;Max_cycle;Signal;HPM_P1;HPM_P2
2022/03/03 00:01:58;;;;;;;26.30;15.97;;;;;;;-0.33;100.00;98446.53;5114059;28;20212;-67
2022/03/03 00:04:25;;;;;;;22.83;16.23;;;;;;;-0.26;100.00;98453.31;5114052;28;20230;-67
2022/03/03 00:06:51;;;;;;;20.57;15.57;;;;;;;-0.28;100.00;98449.03;5113828;28;20242;-67
2022/03/03 00:09:19;;;;;;;24.70;16.77;;;;;;;-0.30;100.00;98445.63;5112200;28;20237;-67
2022/03/03 00:11:46;;;;;;;25.33;15.87;;;;;;;-0.30;100.00;98449.09;5113537;28;20216;-67
2022/03/03 00:14:12;;;;;;;25.77;16.53;;;;;;;-0.41;100.00;98452.78;5113960;28;20209;-67
2022/03/03 00:16:39;;;;;;;23.67;16.00;;;;;;;-0.39;100.00;98451.84;5113663;28;20228;-67
2022/03/03 00:19:06;;;;;;;23.30;16.33;;;;;;;-0.34;100.00;98456.94;5113383;28;20209;-67
2022/03/03 00:21:32;;;;;;;25.67;16.13;;;;;;;-0.41;100.00;98451.03;5113321;28;20670;-67
2022/03/03 00:23:59;;;;;;;22.53;15.33;;;;;;;-0.43;100.00;98451.97;5112888;28;20221;-67
2022/03/03 00:26:27;;;;;;;24.53;16.13;;;;;;;-0.53;100.00;98459.09;5113534;28;20212;-67
2022/03/03 00:28:54;;;;;;;25.20;15.67;;;;;;;-0.40;100.00;98459.66;5113659;28;20620;-67
2022/03/03 00:31:20;;;;;;;27.43;16.50;;;;;;;-0.42;100.00;98456.25;5113553;28;20570;-67
2022/03/03 00:33:47;;;;;;;21.10;15.33;;;;;;;-0.41;100.00;98457.97;5111696;28;20218;-67
2022/03/03 00:36:13;;;;;;;20.67;14.60;;;;;;;-0.44;100.00;98458.88;5113304;28;20589;-67
2022/03/03 00:38:40;;;;;;;23.37;15.17;;;;;;;-0.48;100.00;98456.38;5113515;28;20213;-67
2022/03/03 00:41:06;;;;;;;22.83;16.07;;;;;;;-0.51;100.00;98459.91;5113371;28;20216;-67
2022/03/03 00:43:34;;;;;;;22.67;15.37;;;;;;;-0.55;100.00;98455.63;5113541;28;20209;-67
2022/03/03 00:46:00;;;;;;;21.80;14.80;;;;;;;-0.60;100.00;98452.31;5113438;28;20220;-67
2022/03/03 00:48:27;;;;;;;21.90;14.73;;;;;;;-0.71;100.00;98448.19;5113399;28;20240;-67
2022/03/03 00:50:53;;;;;;;22.57;14.73;;;;;;;-0.78;100.00;98462.19;5113176;28;20222;-67
2022/03/03 00:53:20;;;;;;;22.90;15.83;;;;;;;-0.77;100.00;98463.88;5113458;28;20582;-67
2022/03/03 00:55:47;;;;;;;22.27;15.37;;;;;;;-0.87;100.00;98467.56;5112998;28;20220;-67
2022/03/03 00:58:13;;;;;;;23.53;15.83;;;;;;;-0.88;100.00;98471.03;5108134;28;20220;-67
2022/03/03 01:00:41;;;;;;;23.10;15.87;;;;;;;-0.93;100.00;98465.91;5111676;28;20608;-67
2022/03/03 01:03:08;;;;;;;25.07;16.23;;;;;;;-1.02;100.00;98468.69;5104856;28;20230;-67
2022/03/03 01:05:34;;;;;;;23.80;15.30;;;;;;;-0.91;100.00;98468.50;5113146;28;20227;-67
2022/03/03 01:08:01;;;;;;;25.63;16.20;;;;;;;-0.92;100.00;98475.41;5113158;28;20240;-67
2022/03/03 01:10:27;;;;;;;27.10;16.10;;;;;;;-0.91;100.00;98482.34;5112704;28;20739;-67
2022/03/03 01:12:54;;;;;;;25.23;17.23;;;;;;;-1.05;100.00;98480.88;5113000;28;20219;-67
2022/03/03 01:15:20;;;;;;;27.10;18.03;;;;;;;-1.13;100.00;98475.81;5113271;28;20227;-67
2022/03/03 01:17:48;;;;;;;23.97;16.80;;;;;;;-1.05;100.00;98452.34;5112990;28;20218;-67
2022/03/03 01:20:14;;;;;;;22.70;15.97;;;;;;;-1.01;100.00;98449.66;5112820;28;20218;-67
2022/03/03 01:22:42;;;;;;;26.07;16.47;;;;;;;-1.16;100.00;98449.09;5113023;28;20311;-67
2022/03/03 01:25:09;;;;;;;23.17;15.97;;;;;;;-1.27;100.00;98445.81;5113141;28;20227;-67
2022/03/03 01:27:35;;;;;;;25.43;16.53;;;;;;;-1.30;100.00;98445.91;5111205;28;20244;-67
2022/03/03 01:30:02;;;;;;;24.37;15.80;;;;;;;-1.34;100.00;98433.84;5113045;28;20213;-67
2022/03/03 01:32:29;;;;;;;23.13;15.50;;;;;;;-1.33;100.00;98432.97;5112994;28;20215;-67
2022/03/03 01:34:57;;;;;;;23.37;15.60;;;;;;;-1.34;100.00;98424.34;5114366;28;20224;-67
2022/03/03 01:37:23;;;;;;;22.93;15.63;;;;;;;-1.28;100.00;98423.38;5116661;28;20218;-67
2022/03/03 01:39:50;;;;;;;23.43;15.50;;;;;;;-1.27;100.00;98430.28;5116738;28;20580;-67
2022/03/03 01:42:17;;;;;;;26.63;16.30;;;;;;;-1.20;100.00;98434.47;5116522;28;20234;-67
2022/03/03 01:44:45;;;;;;;24.00;15.40;;;;;;;-1.22;100.00;98437.06;5116481;28;20216;-67
2022/03/03 01:47:19;;;;;;;22.57;15.23;;;;;;;-1.26;100.00;98442.34;5116246;28;20689;-67
2022/03/03 01:49:45;;;;;;;23.03;15.33;;;;;;;-1.37;100.00;98433.91;5116582;28;20242;-67
2022/03/03 01:52:14;;;;;;;23.43;15.67;;;;;;;-1.36;100.00;98443.41;5115769;28;20219;-67
2022/03/03 01:54:41;;;;;;;21.80;14.80;;;;;;;-1.49;100.00;98439.28;5116035;28;20252;-67
2022/03/03 01:57:08;;;;;;;23.50;16.03;;;;;;;-1.53;100.00;98437.66;5116148;28;20221;-67
2022/03/03 01:59:36;;;;;;;24.17;16.33;;;;;;;-1.66;100.00;98430.97;5115467;28;20222;-67
2022/03/03 02:02:03;;;;;;;20.70;15.03;;;;;;;-1.70;100.00;98426.69;5116276;28;20214;-67
2022/03/03 02:04:30;;;;;;;22.83;16.03;;;;;;;-1.76;100.00;98440.63;5116311;28;20215;-67
2022/03/03 02:06:57;;;;;;;26.03;17.67;;;;;;;-1.78;100.00;98437.19;5115867;28;20229;-67
2022/03/03 02:09:25;;;;;;;24.30;17.63;;;;;;;-1.81;100.00;98441.56;5116018;28;20296;-67
2022/03/03 02:11:52;;;;;;;29.37;17.40;;;;;;;-1.82;100.00;98437.25;5116081;28;20218;-67
2022/03/03 02:14:19;;;;;;;22.00;16.67;;;;;;;-1.78;100.00;98432.00;5116187;28;20215;-67
2022/03/03 02:16:45;;;;;;;25.37;16.80;;;;;;;-1.69;100.00;98441.38;5115924;28;20255;-67
2022/03/03 02:19:17;;;;;;;24.63;16.97;;;;;;;-1.67;100.00;98434.44;5114468;28;20222;-67
2022/03/03 02:21:46;;;;;;;27.03;17.67;;;;;;;-1.70;100.00;98424.13;5115940;28;20594;-67
2022/03/03 02:24:12;;;;;;;27.00;16.87;;;;;;;-1.65;100.00;98430.09;5115962;28;20570;-68
2022/03/03 02:26:40;;;;;;;27.60;17.67;;;;;;;-1.63;100.00;98415.34;5115969;28;20219;-67
2022/03/03 02:29:07;;;;;;;25.63;16.90;;;;;;;-1.63;100.00;98425.72;5115519;28;20230;-68
2022/03/03 02:31:34;;;;;;;23.43;16.30;;;;;;;-1.73;100.00;98419.00;5115805;28;20325;-67
2022/03/03 02:34:01;;;;;;;27.37;18.10;;;;;;;-1.77;100.00;98420.75;5115861;28;20206;-67
2022/03/03 02:36:29;;;;;;;26.33;16.73;;;;;;;-1.79;100.00;98419.94;5115637;28;20219;-67
2022/03/03 02:38:59;;;;;;;29.67;17.43;;;;;;;-1.80;100.00;98417.38;5115603;28;20215;-67
2022/03/03 02:41:26;;;;;;;24.73;16.37;;;;;;;-1.84;100.00;98420.91;5115490;28;20236;-67
2022/03/03 02:43:54;;;;;;;27.77;17.63;;;;;;;-1.91;100.00;98424.47;5115198;28;20212;-67
2022/03/03 02:46:20;;;;;;;26.27;16.80;;;;;;;-1.91;100.00;98419.28;5112896;28;20210;-67
2022/03/03 02:48:47;;;;;;;24.87;17.20;;;;;;;-1.92;100.00;98417.56;5115306;28;20238;-67
2022/03/03 02:51:14;;;;;;;25.13;16.50;;;;;;;-1.90;100.00;98421.00;5115133;28;20672;-67
2022/03/03 02:53:41;;;;;;;24.93;17.37;;;;;;;-1.98;100.00;98417.66;5115380;28;20212;-67
2022/03/03 02:56:09;;;;;;;25.30;17.13;;;;;;;-1.99;100.00;98415.94;5115339;28;20242;-67
2022/03/03 02:58:36;;;;;;;29.80;17.93;;;;;;;-2.01;100.00;98420.31;5115277;28;20212;-67
2022/03/03 03:01:04;;;;;;;27.83;17.93;;;;;;;-2.00;100.00;98414.25;5115161;28;20210;-67
2022/03/03 03:03:31;;;;;;;26.30;17.17;;;;;;;-1.94;100.00;98411.56;5115206;28;20219;-67
2022/03/03 03:05:57;;;;;;;25.80;16.83;;;;;;;-1.92;100.00;98402.00;5115137;28;20572;-67
2022/03/03 03:08:24;;;;;;;25.93;17.13;;;;;;;-1.99;100.00;98403.88;5114872;28;20250;-67
2022/03/03 03:10:50;;;;;;;25.50;17.83;;;;;;;-1.96;100.00;98400.38;5114961;28;20241;-67
2022/03/03 03:13:18;;;;;;;27.90;17.50;;;;;;;-2.02;100.00;98400.47;5113618;28;20210;-67
2022/03/03 03:15:46;;;;;;;29.03;18.10;;;;;;;-2.06;100.00;98399.66;5111611;28;20242;-67
2022/03/03 03:18:14;;;;;;;32.40;20.07;;;;;;;-2.15;100.00;98401.53;5114805;28;20568;-67
2022/03/03 03:20:41;;;;;;;29.87;19.40;;;;;;;-2.12;100.00;98404.94;5114714;28;20309;-67
2022/03/03 03:23:09;;;;;;;33.60;19.57;;;;;;;-2.20;100.00;98395.56;5114544;28;20691;-67
2022/03/03 03:25:37;;;;;;;30.43;18.90;;;;;;;-2.22;100.00;98397.31;5114409;28;20664;-67
2022/03/03 03:28:05;;;;;;;27.00;17.47;;;;;;;-2.19;100.00;98392.09;5114652;28;20238;-66
2022/03/03 03:30:33;;;;;;;26.77;16.77;;;;;;;-2.10;100.00;98387.63;5114618;28;20298;-66
2022/03/03 03:32:59;;;;;;;30.60;18.17;;;;;;;-1.97;100.00;98383.13;5114308;28;20589;-67
2022/03/03 03:35:26;;;;;;;26.73;17.57;;;;;;;-2.06;100.00;98383.25;5114531;28;20223;-67
2022/03/03 03:37:53;;;;;;;25.77;17.40;;;;;;;-2.16;100.00;98376.50;5112880;28;20207;-67
2022/03/03 03:40:20;;;;;;;24.40;16.87;;;;;;;-2.21;100.00;98368.81;5114566;28;20218;-67
2022/03/03 03:42:47;;;;;;;23.67;16.50;;;;;;;-2.20;100.00;98380.03;5114491;28;20214;-67
2022/03/03 03:45:14;;;;;;;25.90;17.37;;;;;;;-2.23;100.00;98369.72;5114278;28;20211;-67
2022/03/03 03:47:42;;;;;;;22.47;16.27;;;;;;;-2.30;100.00;98360.34;5113958;28;20680;-66
2022/03/03 03:50:12;;;;;;;26.30;15.27;;;;;;;-2.34;100.00;98363.88;5113979;28;20213;-66
2022/03/03 03:52:40;;;;;;;23.03;15.00;;;;;;;-2.37;100.00;98356.13;5113990;28;20677;-66
2022/03/03 03:55:09;;;;;;;25.87;16.93;;;;;;;-2.47;100.00;98359.72;5114031;28;20206;-66
2022/03/03 03:57:36;;;;;;;23.63;16.20;;;;;;;-2.42;100.00;98365.69;5113770;28;20214;-67
2022/03/03 04:00:05;;;;;;;24.10;16.23;;;;;;;-2.45;100.00;98368.34;5114012;28;20214;-66
2022/03/03 04:02:32;;;;;;;24.87;16.33;;;;;;;-2.48;100.00;98358.03;5114103;28;20232;-66
2022/03/03 04:04:59;;;;;;;23.17;15.80;;;;;;;-2.50;100.00;98359.78;5112280;28;20219;-67
2022/03/03 04:07:26;;;;;;;24.00;16.07;;;;;;;-2.57;100.00;98358.16;5114008;28;20223;-67
2022/03/03 04:09:52;;;;;;;24.83;16.37;;;;;;;-2.65;100.00;98354.81;5113798;28;20245;-67
2022/03/03 04:12:19;;;;;;;24.30;16.00;;;;;;;-2.70;100.00;98357.47;5113547;28;20219;-67
2022/03/03 04:14:45;;;;;;;24.00;15.27;;;;;;;-2.70;100.00;98354.88;5113463;28;20217;-66
2022/03/03 04:17:12;;;;;;;23.63;15.77;;;;;;;-2.74;100.00;98360.13;5113383;28;20214;-67
2022/03/03 04:19:38;;;;;;;21.10;15.23;;;;;;;-2.73;100.00;98356.66;5113562;28;20660;-66
2022/03/03 04:22:06;;;;;;;24.27;16.43;;;;;;;-2.80;100.00;98357.63;5113873;28;20217;-67
2022/03/03 04:24:33;;;;;;;25.27;16.47;;;;;;;-2.88;100.00;98354.28;5113716;28;20655;-67
2022/03/03 04:26:59;;;;;;;30.53;18.43;;;;;;;-2.89;100.00;98347.41;5113364;28;20207;-67
2022/03/03 04:29:26;;;;;;;35.70;19.73;;;;;;;-2.90;100.00;98353.44;5112457;28;20236;-66
2022/03/03 04:31:53;;;;;;;30.77;19.17;;;;;;;-2.90;100.00;98349.13;5111866;28;20702;-66
2022/03/03 04:34:20;;;;;;;30.20;19.80;;;;;;;-2.86;100.00;98347.34;5113638;28;20280;-67
2022/03/03 04:36:47;;;;;;;32.67;20.07;;;;;;;-2.87;100.00;98341.31;5113377;28;20218;-66
2022/03/03 04:39:15;;;;;;;28.00;18.43;;;;;;;-2.90;100.00;98353.44;5113285;28;20220;-67
2022/03/03 04:41:41;;;;;;;31.47;20.03;;;;;;;-2.91;100.00;98338.81;5113407;28;20214;-66
2022/03/03 04:44:08;;;;;;;29.13;18.37;;;;;;;-2.80;100.00;98339.53;5113489;28;20210;-66
2022/03/03 04:46:35;;;;;;;29.10;18.57;;;;;;;-2.75;100.00;98342.91;5113423;28;20564;-66
2022/03/03 04:49:02;;;;;;;30.33;18.30;;;;;;;-2.80;100.00;98340.38;5113104;28;20241;-67
2022/03/03 04:51:28;;;;;;;30.20;18.23;;;;;;;-2.66;100.00;98337.59;5113047;28;20694;-66
2022/03/03 04:53:55;;;;;;;28.87;18.10;;;;;;;-2.65;100.00;98344.47;5113321;28;20221;-67
2022/03/03 04:56:23;;;;;;;26.90;19.43;;;;;;;-2.64;100.00;98341.03;5111715;28;20221;-66
2022/03/03 04:58:50;;;;;;;26.60;17.43;;;;;;;-2.55;100.00;98335.72;5113142;28;20213;-66
2022/03/03 05:01:17;;;;;;;29.27;18.77;;;;;;;-2.59;100.00;98328.84;5113361;28;20256;-66
2022/03/03 05:03:43;;;;;;;28.47;18.90;;;;;;;-2.53;100.00;98328.75;5113008;28;20221;-66
2022/03/03 05:06:10;;;;;;;31.03;19.10;;;;;;;-2.55;100.00;98320.19;5113340;28;20240;-66
2022/03/03 05:08:36;;;;;;;30.10;19.00;;;;;;;-2.57;100.00;98315.03;5113175;28;20244;-66
2022/03/03 05:11:03;;;;;;;36.53;19.33;;;;;;;-2.50;100.00;98310.63;5116808;28;20230;-66
2022/03/03 05:13:31;;;;;;;32.77;19.07;;;;;;;-2.47;100.00;98305.38;5117379;28;20297;-66
2022/03/03 05:15:57;;;;;;;28.40;18.07;;;;;;;-2.39;100.00;98306.16;5117071;28;20237;-66
2022/03/03 05:18:24;;;;;;;26.53;17.97;;;;;;;-2.42;100.00;98306.19;5117222;28;20214;-67
2022/03/03 05:20:50;;;;;;;29.00;18.37;;;;;;;-2.45;100.00;98307.06;5117273;28;20232;-66
2022/03/03 05:23:16;;;;;;;31.70;19.20;;;;;;;-2.46;100.00;98304.53;5115498;28;20218;-66
2022/03/03 05:25:43;;;;;;;29.63;17.60;;;;;;;-2.37;100.00;98302.66;5117224;28;20210;-66
2022/03/03 05:28:10;;;;;;;27.93;17.33;;;;;;;-2.36;100.00;98303.50;5116831;28;20220;-66
2022/03/03 05:30:38;;;;;;;28.03;17.10;;;;;;;-2.43;100.00;98301.88;5108640;28;20224;-66
2022/03/03 05:33:04;;;;;;;29.77;18.13;;;;;;;-2.46;100.00;98312.31;5116899;28;20210;-66
2022/03/03 05:35:31;;;;;;;27.13;17.83;;;;;;;-2.52;100.00;98315.81;5116501;28;20212;-66
2022/03/03 05:37:57;;;;;;;29.00;17.93;;;;;;;-2.50;100.00;98321.81;5116834;28;20223;-66
2022/03/03 05:40:24;;;;;;;30.00;19.33;;;;;;;-2.49;100.00;98330.44;5116613;28;20224;-66
2022/03/03 05:42:51;;;;;;;28.57;19.00;;;;;;;-2.43;100.00;98336.41;5116685;28;20209;-66
2022/03/03 05:45:17;;;;;;;27.97;17.63;;;;;;;-2.41;100.00;98333.75;5109091;28;20219;-66
2022/03/03 05:47:46;;;;;;;25.43;16.57;;;;;;;-2.41;100.00;98333.75;5116729;28;20218;-66
2022/03/03 05:50:13;;;;;;;26.13;17.43;;;;;;;-2.48;100.00;98330.44;5114836;28;20242;-66
2022/03/03 05:52:39;;;;;;;27.50;18.07;;;;;;;-2.46;100.00;98325.25;5116323;28;20217;-66
2022/03/03 05:55:06;;;;;;;28.90;17.83;;;;;;;-2.60;100.00;98327.16;5116606;28;20217;-67
2022/03/03 05:57:36;;;;;;;27.27;16.97;;;;;;;-2.65;100.00;98324.63;5116559;28;20217;-67
2022/03/03 06:00:06;;;;;;;26.43;17.03;;;;;;;-2.67;100.00;98325.53;5116498;28;20215;-67
2022/03/03 06:02:33;;;;;;;30.57;18.47;;;;;;;-2.72;100.00;98317.84;5116493;28;20214;-67
2022/03/03 06:05:04;;;;;;;32.60;19.13;;;;;;;-2.71;100.00;98321.28;5116401;28;20232;-66
2022/03/03 06:07:35;;;;;;;26.53;17.03;;;;;;;-2.66;100.00;98316.91;5116060;28;20267;-67
2022/03/03 06:10:04;;;;;;;28.00;17.90;;;;;;;-2.68;100.00;98314.34;5108540;28;20253;-67
2022/03/03 06:12:39;;;;;;;28.97;17.57;;;;;;;-2.67;100.00;98321.22;5115794;28;20206;-66
2022/03/03 06:15:07;;;;;;;37.77;18.77;;;;;;;-2.70;100.00;98315.25;5114355;28;20206;-66
2022/03/03 06:17:35;;;;;;;28.23;18.33;;;;;;;-2.59;100.00;98318.50;5115852;28;20206;-66
2022/03/03 06:20:04;;;;;;;30.00;18.60;;;;;;;-2.58;100.00;98325.41;5115972;28;20218;-66
2022/03/03 06:22:31;;;;;;;28.57;18.03;;;;;;;-2.59;100.00;98334.03;5114456;28;20660;-66
2022/03/03 06:24:58;;;;;;;29.37;17.60;;;;;;;-2.58;100.00;98322.84;5116085;28;20297;-66
2022/03/03 06:27:24;;;;;;;26.80;17.77;;;;;;;-2.62;100.00;98316.84;5115818;28;20218;-68
2022/03/03 06:29:51;;;;;;;28.97;17.10;;;;;;;-2.61;100.00;98321.16;5115744;28;20240;-66
2022/03/03 06:32:17;;;;;;;29.27;18.10;;;;;;;-2.64;100.00;98312.56;5115355;28;20218;-66
2022/03/03 06:34:44;;;;;;;30.60;19.03;;;;;;;-2.56;100.00;98313.31;5115739;28;20209;-66
2022/03/03 06:37:12;;;;;;;30.10;18.33;;;;;;;-2.51;100.00;98306.34;5115602;28;20217;-66
2022/03/03 06:39:38;;;;;;;28.43;18.67;;;;;;;-2.43;100.00;98297.56;5115596;28;20237;-66
2022/03/03 06:42:06;;;;;;;28.00;18.27;;;;;;;-2.47;100.00;98293.31;5113857;28;20217;-66
2022/03/03 06:44:32;;;;;;;28.60;17.67;;;;;;;-2.41;100.00;98287.19;5115537;28;20206;-67
2022/03/03 06:46:59;;;;;;;27.83;17.20;;;;;;;-2.34;100.00;98268.94;5115485;28;20213;-66
2022/03/03 06:49:25;;;;;;;29.20;18.17;;;;;;;-2.21;100.00;98254.09;5115222;28;20250;-67
2022/03/03 06:51:56;;;;;;;33.53;18.33;;;;;;;-2.15;100.00;98248.81;5115338;28;20214;-67
2022/03/03 06:54:25;;;;;;;25.83;18.00;;;;;;;-2.06;100.00;98248.63;5115363;28;20214;-67
2022/03/03 06:56:54;;;;;;;28.63;17.77;;;;;;;-1.96;100.00;98242.41;5115257;28;20294;-67
2022/03/03 06:59:22;;;;;;;31.80;19.00;;;;;;;-1.88;100.00;98243.09;5115196;28;20583;-66
2022/03/03 07:01:50;;;;;;;31.47;19.00;;;;;;;-1.81;100.00;98248.16;5114412;28;20206;-67
2022/03/03 07:04:18;;;;;;;31.60;19.03;;;;;;;-1.74;100.00;98256.66;5114928;28;20732;-67
2022/03/03 07:06:46;;;;;;;27.63;18.90;;;;;;;-1.55;100.00;98248.50;5115095;28;20675;-66
2022/03/03 07:09:12;;;;;;;26.83;18.13;;;;;;;-1.41;100.00;98263.78;5113311;28;20251;-66
2022/03/03 07:11:42;;;;;;;31.23;17.87;;;;;;;-1.33;100.00;98270.53;5114662;28;20215;-66
2022/03/03 07:14:09;;;;;;;29.93;17.97;;;;;;;-1.14;100.00;98282.22;5114796;28;20215;-66
2022/03/03 07:16:40;;;;;;;27.67;17.70;;;;;;;-0.95;100.00;98287.84;5114513;28;20218;-66
2022/03/03 07:19:14;;;;;;;24.60;16.67;;;;;;;-1.07;100.00;98277.72;5112163;28;20222;-66
2022/03/03 07:21:52;;;;;;;25.20;16.90;;;;;;;-1.07;100.00;98275.16;5106755;28;20230;-66
2022/03/03 07:24:25;;;;;;;27.83;17.87;;;;;;;-1.01;100.00;98272.41;5109942;28;20576;-67
2022/03/03 07:26:58;;;;;;;31.63;18.30;;;;;;;-0.94;100.00;98273.97;5114751;28;20227;-67
2022/03/03 07:29:29;;;;;;;27.63;18.23;;;;;;;-0.79;100.00;98278.84;5114647;28;20243;-68
2022/03/03 07:31:58;;;;;;;30.57;18.30;;;;;;;-0.66;100.00;98281.16;5114107;28;20219;-68
2022/03/03 07:34:28;;;;;;;30.10;19.07;;;;;;;-0.52;100.00;98293.78;5112797;28;20222;-67
2022/03/03 07:36:58;;;;;;;27.83;18.07;;;;;;;-0.46;100.00;98288.47;5114440;28;20228;-68
2022/03/03 07:39:30;;;;;;;28.73;17.43;;;;;;;-0.36;100.00;98279.56;5114399;28;20223;-68
2022/03/03 07:41:59;;;;;;;26.37;16.63;;;;;;;-0.29;100.00;98281.13;5114389;28;20227;-68
2022/03/03 07:44:26;;;;;;;26.87;17.50;;;;;;;-0.28;100.00;98274.16;5114446;28;20216;-68
2022/03/03 07:46:53;;;;;;;25.60;17.20;;;;;;;-0.12;100.00;98287.63;5114139;28;20219;-68
2022/03/03 07:49:21;;;;;;;25.90;16.43;;;;;;;-0.01;100.00;98289.06;5114062;28;20711;-68
2022/03/03 07:51:49;;;;;;;24.03;16.73;;;;;;;0.12;100.00;98285.25;5114375;28;20266;-68
2022/03/03 07:54:16;;;;;;;26.83;17.63;;;;;;;0.13;100.00;98280.94;5114356;28;20619;-67
2022/03/03 07:56:48;;;;;;;24.07;16.37;;;;;;;0.15;100.00;98280.00;5114063;28;20244;-67
2022/03/03 07:59:18;;;;;;;29.30;16.23;;;;;;;0.18;100.00;98286.84;5114190;28;20213;-67
2022/03/03 08:01:46;;;;;;;27.10;16.80;;;;;;;0.17;100.00;98283.41;5112424;28;20266;-67
2022/03/03 08:04:15;;;;;;;26.40;16.07;;;;;;;0.15;100.00;98279.13;5113972;28;20212;-67
2022/03/03 08:06:43;;;;;;;27.37;17.00;;;;;;;0.20;100.00;98278.09;5113953;28;20213;-67
2022/03/03 08:09:10;;;;;;;29.00;18.53;;;;;;;0.27;100.00;98277.06;5113723;28;20241;-67
2022/03/03 08:11:40;;;;;;;25.00;17.70;;;;;;;0.43;99.74;98275.75;5113661;28;20213;-67
2022/03/03 08:14:07;;;;;;;25.20;16.53;;;;;;;0.58;98.12;98280.56;5110936;28;20682;-67
2022/03/03 08:16:38;;;;;;;25.37;17.80;;;;;;;0.76;95.22;98274.84;5111859;28;20678;-67
2022/03/03 08:19:07;;;;;;;24.13;16.57;;;;;;;0.90;94.16;98277.03;5113843;28;20282;-67
2022/03/03 08:21:35;;;;;;;23.57;16.83;;;;;;;0.98;93.57;98286.31;5111230;28;20672;-67
2022/03/03 08:24:03;;;;;;;23.70;16.77;;;;;;;1.07;91.79;98282.59;5113520;28;20674;-67
2022/03/03 08:26:30;;;;;;;24.63;16.30;;;;;;;1.12;92.06;98278.94;5110718;28;20232;-67
2022/03/03 08:28:57;;;;;;;22.50;16.23;;;;;;;1.22;92.57;98280.38;5113588;28;20218;-67
2022/03/03 08:31:29;;;;;;;24.20;16.23;;;;;;;1.35;92.87;98279.13;5112540;28;20244;-67
2022/03/03 08:34:03;;;;;;;25.53;17.03;;;;;;;1.49;90.77;98279.56;5113497;28;20625;-67
2022/03/03 08:36:34;;;;;;;24.67;17.60;;;;;;;1.58;91.33;98279.25;5105721;28;20209;-67
2022/03/03 08:39:05;;;;;;;23.33;16.73;;;;;;;1.69;91.07;98281.53;5113512;28;20307;-67
2022/03/03 08:41:36;;;;;;;23.40;15.50;;;;;;;1.82;90.00;98293.25;5113502;28;20226;-67
2022/03/03 08:44:04;;;;;;;24.00;16.90;;;;;;;1.93;90.07;98281.59;5112657;28;20216;-67
2022/03/03 08:46:33;;;;;;;24.63;16.97;;;;;;;2.08;90.96;98286.28;5113452;28;20212;-67
2022/03/03 08:49:03;;;;;;;25.60;16.53;;;;;;;2.21;89.30;98286.75;5113240;28;20224;-67
2022/03/03 08:51:30;;;;;;;26.60;17.43;;;;;;;2.37;89.11;98280.09;5113397;28;20212;-67
2022/03/03 08:53:57;;;;;;;28.63;17.40;;;;;;;2.45;87.58;98275.47;5111766;28;20209;-67
2022/03/03 08:56:24;;;;;;;21.57;15.30;;;;;;;2.55;86.64;98282.94;5113383;28;20214;-67
2022/03/03 08:58:51;;;;;;;22.67;15.77;;;;;;;2.64;88.10;98281.75;5113023;28;20212;-67
2022/03/03 09:01:17;;;;;;;22.67;16.07;;;;;;;2.78;86.07;98280.34;5113137;28;20221;-67
2022/03/03 09:03:44;;;;;;;21.63;15.57;;;;;;;2.82;85.13;98276.69;5113022;28;20679;-67
2022/03/03 09:06:15;;;;;;;21.43;15.77;;;;;;;3.00;84.20;98278.66;5113153;28;20213;-67
2022/03/03 09:08:42;;;;;;;20.97;15.70;;;;;;;3.08;83.04;98279.22;5113160;28;20224;-67
2022/03/03 09:11:09;;;;;;;20.67;15.60;;;;;;;3.19;82.84;98269.22;5112744;28;20257;-67
2022/03/03 09:13:35;;;;;;;23.23;16.27;;;;;;;3.33;82.82;98274.78;5113238;28;20304;-67
2022/03/03 09:16:02;;;;;;;23.23;16.37;;;;;;;3.43;83.41;98270.88;5112982;28;20214;-67
2022/03/03 09:18:29;;;;;;;22.93;16.37;;;;;;;3.53;81.21;98269.63;5111286;28;20217;-67
2022/03/03 09:20:55;;;;;;;25.37;16.33;;;;;;;3.59;80.31;98277.22;5113209;28;20222;-67
2022/03/03 09:23:23;;;;;;;22.57;15.50;;;;;;;3.66;81.08;98277.84;5113129;28;20294;-67
2022/03/03 09:25:50;;;;;;;22.73;15.97;;;;;;;3.90;80.51;98271.63;5113068;28;20218;-67
2022/03/03 09:28:16;;;;;;;24.23;16.17;;;;;;;4.03;80.28;98263.22;5113066;28;20214;-67
2022/03/03 09:30:43;;;;;;;21.83;16.17;;;;;;;4.09;79.43;98270.81;5111078;28;20246;-67
2022/03/03 09:33:09;;;;;;;20.80;15.97;;;;;;;4.23;79.21;98272.84;5112700;28;20214;-67
2022/03/03 09:35:36;;;;;;;20.80;15.50;;;;;;;4.30;75.27;98277.78;5113006;28;20207;-67
2022/03/03 09:38:02;;;;;;;22.83;15.87;;;;;;;4.34;74.18;98284.56;5112610;28;20214;-67
2022/03/03 09:40:30;;;;;;;22.67;14.40;;;;;;;4.35;74.18;98275.78;5112625;28;20215;-67
2022/03/03 09:42:59;;;;;;;19.80;14.50;;;;;;;4.46;71.55;98264.88;5112922;28;20207;-67
2022/03/03 09:45:26;;;;;;;20.50;14.60;;;;;;;4.51;72.91;98266.38;5111042;28;20691;-67
2022/03/03 09:47:53;;;;;;;19.27;14.63;;;;;;;4.55;72.45;98249.66;5112863;28;20249;-67
2022/03/03 09:50:21;;;;;;;21.23;14.40;;;;;;;4.62;71.69;98258.94;5105156;28;20730;-67
2022/03/03 09:52:49;;;;;;;18.73;14.30;;;;;;;4.72;71.89;98255.00;5104392;28;20223;-67
2022/03/03 09:55:15;;;;;;;18.87;14.60;;;;;;;4.89;70.18;98254.25;5107841;28;20211;-67
2022/03/03 09:57:43;;;;;;;20.07;14.87;;;;;;;5.00;68.68;98255.44;5111364;28;20217;-67
2022/03/03 10:00:12;;;;;;;18.27;14.47;;;;;;;5.08;67.63;98248.09;5109736;28;20212;-67
2022/03/03 10:02:55;;;;;;;19.63;14.27;;;;;;;5.29;67.08;98249.72;5108432;28;20219;-67
2022/03/03 10:05:32;;;;;;;19.00;14.17;;;;;;;5.44;65.16;98251.63;5111148;28;20748;-67
2022/03/03 10:08:01;;;;;;;18.17;13.70;;;;;;;5.54;64.68;98252.91;5107243;28;20245;-68
2022/03/03 10:10:27;;;;;;;20.33;13.60;;;;;;;5.59;63.37;98264.03;5107560;28;20455;-67
2022/03/03 10:12:57;;;;;;;19.93;14.37;;;;;;;5.61;63.83;98262.16;5109915;28;20219;-67
2022/03/03 10:15:26;;;;;;;18.87;13.77;;;;;;;5.68;63.28;98253.09;5110823;28;20232;-67
2022/03/03 10:17:57;;;;;;;19.13;13.27;;;;;;;5.88;61.20;98246.91;5110897;28;20262;-68
2022/03/03 10:20:23;;;;;;;15.73;12.47;;;;;;;5.98;60.62;98254.25;5110899;28;20277;-67
2022/03/03 10:22:57;;;;;;;18.47;14.00;;;;;;;6.12;60.45;98251.78;5111161;28;20217;-67
2022/03/03 10:25:29;;;;;;;19.87;13.40;;;;;;;6.32;60.45;98245.56;5110673;28;20238;-68
2022/03/03 10:27:57;;;;;;;16.93;12.60;;;;;;;6.44;60.18;98248.44;5107119;28;20677;-68
2022/03/03 10:30:24;;;;;;;14.93;11.87;;;;;;;6.50;56.96;98244.63;5109560;28;20249;-68
2022/03/03 10:32:50;;;;;;;17.90;13.07;;;;;;;6.54;58.11;98239.13;5110658;28;20217;-66
2022/03/03 10:35:18;;;;;;;17.50;13.37;;;;;;;6.61;59.72;98240.53;5110829;28;20211;-68
2022/03/03 10:37:46;;;;;;;17.57;13.10;;;;;;;6.61;59.36;98243.16;5105306;28;20691;-67
2022/03/03 10:40:15;;;;;;;16.73;12.57;;;;;;;6.77;57.71;98232.72;5109601;28;20249;-67
2022/03/03 10:42:48;;;;;;;18.70;13.97;;;;;;;6.77;57.00;98240.59;5110751;28;20221;-67
2022/03/03 10:45:19;;;;;;;18.77;13.13;;;;;;;6.65;56.01;98239.44;5110632;28;20217;-67
2022/03/03 10:47:46;;;;;;;16.80;13.37;;;;;;;6.70;56.29;98232.16;5110702;28;20220;-67
2022/03/03 10:50:13;;;;;;;17.93;13.27;;;;;;;6.78;56.98;98229.16;5107157;28;20238;-67
2022/03/03 10:52:40;;;;;;;16.60;12.83;;;;;;;6.88;57.57;98239.09;5110127;28;20697;-67
2022/03/03 10:55:12;;;;;;;17.63;13.63;;;;;;;7.15;55.89;98229.72;5111567;28;20216;-68
2022/03/03 10:57:40;;;;;;;18.30;12.97;;;;;;;7.23;51.95;98230.19;5106477;28;20214;-67
2022/03/03 11:00:10;;;;;;;19.40;13.60;;;;;;;7.23;53.51;98230.19;5110063;28;20225;-67
2022/03/03 11:02:42;;;;;;;16.43;13.20;;;;;;;7.24;52.97;98223.97;5109604;28;20220;-67
2022/03/03 11:05:10;;;;;;;17.47;13.00;;;;;;;7.20;52.85;98214.56;5104937;28;20214;-67
2022/03/03 11:07:39;;;;;;;17.73;13.67;;;;;;;7.22;52.54;98208.28;5107095;28;20237;-67
2022/03/03 11:10:07;;;;;;;18.83;13.67;;;;;;;7.26;52.02;98206.34;5109698;28;20361;-66
2022/03/03 11:12:34;;;;;;;19.17;14.30;;;;;;;7.38;52.73;98196.94;5109995;28;20217;-66
2022/03/03 11:15:01;;;;;;;20.63;13.80;;;;;;;7.41;53.75;98187.94;5107176;28;20585;-67
2022/03/03 11:17:27;;;;;;;19.43;14.30;;;;;;;7.32;52.85;98182.34;5111854;28;20220;-67